sensor_id;sensor_type;location;lat;lon;timestamp;temperature;humidity
47590;DHT22;33316;52.298;9.056;2023-11-21T00:00:31;9.00;99.90
47590;DHT22;33316;52.298;9.056;2023-11-21T00:02:58;9.00;99.90
47590;DHT22;33316;52.298;9.056;2023-11-21T00:05:25;9.00;99.90
47590;DHT22;33316;52.298;9.056;2023-11-21T00:07:52;9.00;99.90
47590;DHT22;33316;52.298;9.056;2023-11-21T00:10:20;9.00;99.90
47590;DHT22;33316;52.298;9.056;2023-11-21T00:12:47;9.00;99.90
47590;DHT22;33316;52.298;9.056;2023-11-21T00:15:14;9.00;99.90
47590;DHT22;33316;52.298;9.056;2023-11-21T00:17:41;9.10;99.90
47590;DHT22;33316;52.298;9.056;2023-11-21T00:20:09;9.00;99.90
47590;DHT22;33316;52.298;9.056;2023-11-21T00:22:38;9.00;99.90
47590;DHT22;33316;52.298;9.056;2023-11-21T00:25:07;9.10;99.90
47590;DHT22;33316;52.298;9.056;2023-11-21T00:27:36;9.10;99.90
47590;DHT22;33316;52.298;9.056;2023-11-21T00:30:03;9.10;99.90
47590;DHT22;33316;52.298;9.056;2023-11-21T00:32:35;9.10;99.90
47590;DHT22;33316;52.298;9.056;2023-11-21T00:35:01;9.10;99.90
47590;DHT22;33316;52.298;9.056;2023-11-21T00:37:28;9.10;99.90
47590;DHT22;33316;52.298;9.056;2023-11-21T00:39:57;9.10;99.90
47590;DHT22;33316;52.298;9.056;2023-11-21T00:42:24;9.10;99.90
47590;DHT22;33316;52.298;9.056;2023-11-21T00:44:52;9.10;99.90
47590;DHT22;33316;52.298;9.056;2023-11-21T00:47:19;9.10;99.90
47590;DHT22;33316;52.298;9.056;2023-11-21T00:49:46;9.10;99.90
47590;DHT22;33316;52.298;9.056;2023-11-21T00:52:15;9.10;99.90
47590;DHT22;33316;52.298;9.056;2023-11-21T00:54:42;9.10;99.90
47590;DHT22;33316;52.298;9.056;2023-11-21T00:57:09;9.10;99.90
47590;DHT22;33316;52.298;9.056;2023-11-21T00:59:37;9.10;99.90
47590;DHT22;33316;52.298;9.056;2023-11-21T01:02:06;9.20;99.90
47590;DHT22;33316;52.298;9.056;2023-11-21T01:04:35;9.20;99.90
47590;DHT22;33316;52.298;9.056;2023-11-21T01:07:03;9.10;99.90
47590;DHT22;33316;52.298;9.056;2023-11-21T01:09:31;9.20;99.90
47590;DHT22;33316;52.298;9.056;2023-11-21T01:11:57;9.10;99.90
47590;DHT22;33316;52.298;9.056;2023-11-21T01:14:25;9.20;99.90
47590;DHT22;33316;52.298;9.056;2023-11-21T01:16:52;9.20;99.90
47590;DHT22;33316;52.298;9.056;2023-11-21T01:19:20;9.20;99.90
47590;DHT22;33316;52.298;9.056;2023-11-21T01:21:47;9.20;99.90
47590;DHT22;33316;52.298;9.056;2023-11-21T01:24:14;9.20;99.90
47590;DHT22;33316;52.298;9.056;2023-11-21T01:26:42;9.20;99.90
47590;DHT22;33316;52.298;9.056;2023-11-21T01:29:09;9.20;99.90
47590;DHT22;33316;52.298;9.056;2023-11-21T01:31:36;9.20;99.90
47590;DHT22;33316;52.298;9.056;2023-11-21T01:34:02;9.20;99.90
47590;DHT22;33316;52.298;9.056;2023-11-21T01:36:31;9.20;99.90
47590;DHT22;33316;52.298;9.056;2023-11-21T01:38:59;9.20;99.90
47590;DHT22;33316;52.298;9.056;2023-11-21T01:41:26;9.20;99.90
47590;DHT22;33316;52.298;9.056;2023-11-21T01:43:53;9.20;99.90
47590;DHT22;33316;52.298;9.056;2023-11-21T01:46:20;9.20;99.90
47590;DHT22;33316;52.298;9.056;2023-11-21T01:48:48;9.20;99.90
47590;DHT22;33316;52.298;9.056;2023-11-21T01:51:15;9.20;99.90
47590;DHT22;33316;52.298;9.056;2023-11-21T01:53:43;9.20;99.90
47590;DHT22;33316;52.298;9.056;2023-11-21T01:56:12;9.20;99.90
47590;DHT22;33316;52.298;9.056;2023-11-21T01:58:39;9.20;99.90
47590;DHT22;33316;52.298;9.056;2023-11-21T02:01:05;9.20;99.90
47590;DHT22;33316;52.298;9.056;2023-11-21T02:03:32;9.20;99.90
47590;DHT22;33316;52.298;9.056;2023-11-21T02:06:00;9.20;99.90
47590;DHT22;33316;52.298;9.056;2023-11-21T02:08:26;9.20;99.90
47590;DHT22;33316;52.298;9.056;2023-11-21T02:10:55;9.20;99.90
47590;DHT22;33316;52.298;9.056;2023-11-21T02:13:23;9.20;99.90
47590;DHT22;33316;52.298;9.056;2023-11-21T02:15:50;9.30;99.90
47590;DHT22;33316;52.298;9.056;2023-11-21T02:18:19;9.20;99.90
47590;DHT22;33316;52.298;9.056;2023-11-21T02:20:47;9.20;99.90
47590;DHT22;33316;52.298;9.056;2023-11-21T02:23:16;9.20;99.90
47590;DHT22;33316;52.298;9.056;2023-11-21T02:25:43;9.20;99.90
47590;DHT22;33316;52.298;9.056;2023-11-21T02:28:10;9.30;99.90
47590;DHT22;33316;52.298;9.056;2023-11-21T02:30:38;9.30;99.90
47590;DHT22;33316;52.298;9.056;2023-11-21T02:33:05;9.30;99.90
47590;DHT22;33316;52.298;9.056;2023-11-21T02:35:32;9.30;99.90
47590;DHT22;33316;52.298;9.056;2023-11-21T02:38:00;9.30;99.90
47590;DHT22;33316;52.298;9.056;2023-11-21T02:40:29;9.30;99.90
47590;DHT22;33316;52.298;9.056;2023-11-21T02:42:55;9.30;99.90
47590;DHT22;33316;52.298;9.056;2023-11-21T02:45:24;9.30;99.90
47590;DHT22;33316;52.298;9.056;2023-11-21T02:47:51;9.30;99.90
47590;DHT22;33316;52.298;9.056;2023-11-21T02:50:22;9.30;99.90
47590;DHT22;33316;52.298;9.056;2023-11-21T02:52:49;9.30;99.90
47590;DHT22;33316;52.298;9.056;2023-11-21T02:55:16;9.30;99.90
47590;DHT22;33316;52.298;9.056;2023-11-21T02:57:44;9.30;99.90
47590;DHT22;33316;52.298;9.056;2023-11-21T03:00:11;9.30;99.90
47590;DHT22;33316;52.298;9.056;2023-11-21T03:02:40;9.30;99.90
47590;DHT22;33316;52.298;9.056;2023-11-21T03:05:07;9.30;99.90
47590;DHT22;33316;52.298;9.056;2023-11-21T03:07:36;9.30;99.90
47590;DHT22;33316;52.298;9.056;2023-11-21T03:10:03;9.30;99.90
47590;DHT22;33316;52.298;9.056;2023-11-21T03:12:30;9.30;99.90
47590;DHT22;33316;52.298;9.056;2023-11-21T03:14:58;9.30;99.90
47590;DHT22;33316;52.298;9.056;2023-11-21T03:17:27;9.30;99.90
47590;DHT22;33316;52.298;9.056;2023-11-21T03:19:54;9.40;99.90
47590;DHT22;33316;52.298;9.056;2023-11-21T03:22:22;9.40;99.90
47590;DHT22;33316;52.298;9.056;2023-11-21T03:24:50;9.40;99.90
47590;DHT22;33316;52.298;9.056;2023-11-21T03:27:16;9.40;99.90
47590;DHT22;33316;52.298;9.056;2023-11-21T03:29:43;9.40;99.90
47590;DHT22;33316;52.298;9.056;2023-11-21T03:32:12;9.40;99.90
47590;DHT22;33316;52.298;9.056;2023-11-21T03:34:52;9.40;99.90
47590;DHT22;33316;52.298;9.056;2023-11-21T03:37:20;9.40;99.90
47590;DHT22;33316;52.298;9.056;2023-11-21T03:39:47;9.50;99.90
47590;DHT22;33316;52.298;9.056;2023-11-21T03:42:14;9.40;99.90
47590;DHT22;33316;52.298;9.056;2023-11-21T03:44:41;9.40;99.90
47590;DHT22;33316;52.298;9.056;2023-11-21T03:47:08;9.50;99.90
47590;DHT22;33316;52.298;9.056;2023-11-21T03:49:36;9.40;99.90
47590;DHT22;33316;52.298;9.056;2023-11-21T03:52:04;9.50;99.90
47590;DHT22;33316;52.298;9.056;2023-11-21T03:54:31;9.50;99.90
47590;DHT22;33316;52.298;9.056;2023-11-21T03:56:59;9.50;99.90
47590;DHT22;33316;52.298;9.056;2023-11-21T03:59:25;9.50;99.90
47590;DHT22;33316;52.298;9.056;2023-11-21T04:01:54;9.50;99.90
47590;DHT22;33316;52.298;9.056;2023-11-21T04:04:21;9.50;99.90
47590;DHT22;33316;52.298;9.056;2023-11-21T04:06:50;9.50;99.90
47590;DHT22;33316;52.298;9.056;2023-11-21T04:09:17;9.50;99.90
47590;DHT22;33316;52.298;9.056;2023-11-21T04:11:44;9.60;99.90
47590;DHT22;33316;52.298;9.056;2023-11-21T04:14:12;9.50;99.90
47590;DHT22;33316;52.298;9.056;2023-11-21T04:16:40;9.50;99.90
47590;DHT22;33316;52.298;9.056;2023-11-21T04:19:07;9.60;99.90
47590;DHT22;33316;52.298;9.056;2023-11-21T04:21:35;9.60;99.90
47590;DHT22;33316;52.298;9.056;2023-11-21T04:24:04;9.60;99.90
47590;DHT22;33316;52.298;9.056;2023-11-21T04:26:31;9.60;99.90
47590;DHT22;33316;52.298;9.056;2023-11-21T04:28:58;9.60;99.90
47590;DHT22;33316;52.298;9.056;2023-11-21T04:31:25;9.60;99.90
47590;DHT22;33316;52.298;9.056;2023-11-21T04:33:52;9.60;99.90
47590;DHT22;33316;52.298;9.056;2023-11-21T04:36:19;9.60;99.90
47590;DHT22;33316;52.298;9.056;2023-11-21T04:38:46;9.60;99.90
47590;DHT22;33316;52.298;9.056;2023-11-21T04:41:14;9.60;99.90
47590;DHT22;33316;52.298;9.056;2023-11-21T04:43:41;9.60;99.90
47590;DHT22;33316;52.298;9.056;2023-11-21T04:46:08;9.60;99.90
47590;DHT22;33316;52.298;9.056;2023-11-21T04:48:35;9.60;99.90
47590;DHT22;33316;52.298;9.056;2023-11-21T04:51:02;9.60;99.90
47590;DHT22;33316;52.298;9.056;2023-11-21T04:53:29;9.60;99.90
47590;DHT22;33316;52.298;9.056;2023-11-21T04:55:56;9.60;99.90
47590;DHT22;33316;52.298;9.056;2023-11-21T04:58:25;9.60;99.90
47590;DHT22;33316;52.298;9.056;2023-11-21T05:00:52;9.60;99.90
47590;DHT22;33316;52.298;9.056;2023-11-21T05:03:19;9.60;99.90
47590;DHT22;33316;52.298;9.056;2023-11-21T05:05:46;9.60;99.90
47590;DHT22;33316;52.298;9.056;2023-11-21T05:08:13;9.60;99.90
47590;DHT22;33316;52.298;9.056;2023-11-21T05:10:40;9.60;99.90
47590;DHT22;33316;52.298;9.056;2023-11-21T05:13:06;9.70;99.90
47590;DHT22;33316;52.298;9.056;2023-11-21T05:15:36;9.60;99.90
47590;DHT22;33316;52.298;9.056;2023-11-21T05:18:04;9.60;99.90
47590;DHT22;33316;52.298;9.056;2023-11-21T05:20:31;9.60;99.90
47590;DHT22;33316;52.298;9.056;2023-11-21T05:22:58;9.60;99.90
47590;DHT22;33316;52.298;9.056;2023-11-21T05:25:25;9.60;99.90
47590;DHT22;33316;52.298;9.056;2023-11-21T05:27:52;9.60;99.90
47590;DHT22;33316;52.298;9.056;2023-11-21T05:30:20;9.60;99.90
47590;DHT22;33316;52.298;9.056;2023-11-21T05:32:49;9.70;99.90
47590;DHT22;33316;52.298;9.056;2023-11-21T05:35:16;9.70;99.90
47590;DHT22;33316;52.298;9.056;2023-11-21T05:37:43;9.60;99.90
47590;DHT22;33316;52.298;9.056;2023-11-21T05:40:11;9.60;99.90
47590;DHT22;33316;52.298;9.056;2023-11-21T05:42:39;9.60;99.90
47590;DHT22;33316;52.298;9.056;2023-11-21T05:45:06;9.70;99.90
47590;DHT22;33316;52.298;9.056;2023-11-21T05:47:36;9.70;99.90
47590;DHT22;33316;52.298;9.056;2023-11-21T05:50:05;9.70;99.90
47590;DHT22;33316;52.298;9.056;2023-11-21T05:52:32;9.70;99.90
47590;DHT22;33316;52.298;9.056;2023-11-21T05:54:59;9.70;99.90
47590;DHT22;33316;52.298;9.056;2023-11-21T05:57:26;9.70;99.90
47590;DHT22;33316;52.298;9.056;2023-11-21T05:59:53;9.60;99.90
47590;DHT22;33316;52.298;9.056;2023-11-21T06:02:21;9.70;99.90
47590;DHT22;33316;52.298;9.056;2023-11-21T06:04:48;9.60;99.90
47590;DHT22;33316;52.298;9.056;2023-11-21T06:07:16;9.60;99.90
47590;DHT22;33316;52.298;9.056;2023-11-21T06:09:43;9.60;99.90
47590;DHT22;33316;52.298;9.056;2023-11-21T06:12:10;9.70;99.90
47590;DHT22;33316;52.298;9.056;2023-11-21T06:14:37;9.60;99.90
47590;DHT22;33316;52.298;9.056;2023-11-21T06:17:04;9.70;99.90
47590;DHT22;33316;52.298;9.056;2023-11-21T06:19:31;9.70;99.90
47590;DHT22;33316;52.298;9.056;2023-11-21T06:21:58;9.70;99.90
47590;DHT22;33316;52.298;9.056;2023-11-21T06:24:26;9.60;99.90
47590;DHT22;33316;52.298;9.056;2023-11-21T06:26:53;9.70;99.90
47590;DHT22;33316;52.298;9.056;2023-11-21T06:29:20;9.70;99.90
47590;DHT22;33316;52.298;9.056;2023-11-21T06:31:47;9.70;99.90
47590;DHT22;33316;52.298;9.056;2023-11-21T06:34:14;9.70;99.90
47590;DHT22;33316;52.298;9.056;2023-11-21T06:36:40;9.70;99.90
47590;DHT22;33316;52.298;9.056;2023-11-21T06:39:07;9.70;99.90
47590;DHT22;33316;52.298;9.056;2023-11-21T06:41:36;9.70;99.90
47590;DHT22;33316;52.298;9.056;2023-11-21T06:44:04;9.70;99.90
47590;DHT22;33316;52.298;9.056;2023-11-21T06:46:31;9.70;99.90
47590;DHT22;33316;52.298;9.056;2023-11-21T06:48:58;9.70;99.90
47590;DHT22;33316;52.298;9.056;2023-11-21T06:51:25;9.70;99.90
47590;DHT22;33316;52.298;9.056;2023-11-21T06:53:52;9.70;99.90
47590;DHT22;33316;52.298;9.056;2023-11-21T06:56:19;9.70;99.90
47590;DHT22;33316;52.298;9.056;2023-11-21T06:58:48;9.70;99.90
47590;DHT22;33316;52.298;9.056;2023-11-21T07:01:15;9.70;99.90
47590;DHT22;33316;52.298;9.056;2023-11-21T07:03:42;9.70;99.90
47590;DHT22;33316;52.298;9.056;2023-11-21T07:06:09;9.70;99.90
47590;DHT22;33316;52.298;9.056;2023-11-21T07:08:35;9.70;99.90
47590;DHT22;33316;52.298;9.056;2023-11-21T07:11:03;9.70;99.90
47590;DHT22;33316;52.298;9.056;2023-11-21T07:13:30;9.70;99.90
47590;DHT22;33316;52.298;9.056;2023-11-21T07:15:58;9.70;99.90
47590;DHT22;33316;52.298;9.056;2023-11-21T07:18:25;9.70;99.90
47590;DHT22;33316;52.298;9.056;2023-11-21T07:20:52;9.70;99.90
47590;DHT22;33316;52.298;9.056;2023-11-21T07:23:19;9.70;99.90
47590;DHT22;33316;52.298;9.056;2023-11-21T07:25:48;9.70;99.90
47590;DHT22;33316;52.298;9.056;2023-11-21T07:28:14;9.70;99.90
47590;DHT22;33316;52.298;9.056;2023-11-21T07:30:41;9.70;99.90
47590;DHT22;33316;52.298;9.056;2023-11-21T07:33:10;9.70;99.90
47590;DHT22;33316;52.298;9.056;2023-11-21T07:35:36;9.70;99.90
47590;DHT22;33316;52.298;9.056;2023-11-21T07:38:04;9.70;99.90
47590;DHT22;33316;52.298;9.056;2023-11-21T07:40:31;9.70;99.90
47590;DHT22;33316;52.298;9.056;2023-11-21T07:42:58;9.70;99.90
47590;DHT22;33316;52.298;9.056;2023-11-21T07:45:25;9.70;99.90
47590;DHT22;33316;52.298;9.056;2023-11-21T07:47:53;9.60;99.90
47590;DHT22;33316;52.298;9.056;2023-11-21T07:50:21;9.60;99.90
47590;DHT22;33316;52.298;9.056;2023-11-21T07:52:48;9.70;99.90
47590;DHT22;33316;52.298;9.056;2023-11-21T07:55:16;9.60;99.90
47590;DHT22;33316;52.298;9.056;2023-11-21T07:57:42;9.60;99.90
47590;DHT22;33316;52.298;9.056;2023-11-21T08:00:10;9.50;99.90
47590;DHT22;33316;52.298;9.056;2023-11-21T08:02:40;9.50;99.90
47590;DHT22;33316;52.298;9.056;2023-11-21T08:05:08;9.40;99.90
47590;DHT22;33316;52.298;9.056;2023-11-21T08:07:39;9.30;99.90
47590;DHT22;33316;52.298;9.056;2023-11-21T08:10:06;9.30;99.90
47590;DHT22;33316;52.298;9.056;2023-11-21T08:12:36;9.20;99.90
47590;DHT22;33316;52.298;9.056;2023-11-21T08:15:04;9.20;99.90
47590;DHT22;33316;52.298;9.056;2023-11-21T08:17:33;9.10;99.90
47590;DHT22;33316;52.298;9.056;2023-11-21T08:20:00;9.00;99.90
47590;DHT22;33316;52.298;9.056;2023-11-21T08:22:28;9.00;99.90
47590;DHT22;33316;52.298;9.056;2023-11-21T08:24:58;9.00;99.90
47590;DHT22;33316;52.298;9.056;2023-11-21T08:27:25;9.00;99.90
47590;DHT22;33316;52.298;9.056;2023-11-21T08:29:52;8.90;99.90
47590;DHT22;33316;52.298;9.056;2023-11-21T08:32:20;8.90;99.90
47590;DHT22;33316;52.298;9.056;2023-11-21T08:34:47;8.80;99.90
47590;DHT22;33316;52.298;9.056;2023-11-21T08:37:16;8.80;99.90
47590;DHT22;33316;52.298;9.056;2023-11-21T08:39:45;8.70;99.90
47590;DHT22;33316;52.298;9.056;2023-11-21T08:42:15;8.70;99.90
47590;DHT22;33316;52.298;9.056;2023-11-21T08:44:41;8.70;99.90
47590;DHT22;33316;52.298;9.056;2023-11-21T08:47:08;8.70;99.90
47590;DHT22;33316;52.298;9.056;2023-11-21T08:49:35;8.60;99.90
47590;DHT22;33316;52.298;9.056;2023-11-21T08:52:03;8.60;99.90
47590;DHT22;33316;52.298;9.056;2023-11-21T08:54:30;8.60;99.90
47590;DHT22;33316;52.298;9.056;2023-11-21T08:56:57;8.50;99.90
47590;DHT22;33316;52.298;9.056;2023-11-21T08:59:26;8.60;99.90
47590;DHT22;33316;52.298;9.056;2023-11-21T09:01:52;8.50;99.90
47590;DHT22;33316;52.298;9.056;2023-11-21T09:04:19;8.50;99.90
47590;DHT22;33316;52.298;9.056;2023-11-21T09:06:46;8.50;99.90
47590;DHT22;33316;52.298;9.056;2023-11-21T09:09:13;8.50;99.90
47590;DHT22;33316;52.298;9.056;2023-11-21T09:11:40;8.50;99.90
47590;DHT22;33316;52.298;9.056;2023-11-21T09:14:07;8.50;99.90
47590;DHT22;33316;52.298;9.056;2023-11-21T09:16:36;8.50;99.90
47590;DHT22;33316;52.298;9.056;2023-11-21T09:19:04;8.50;99.90
47590;DHT22;33316;52.298;9.056;2023-11-21T09:21:31;8.50;99.90
47590;DHT22;33316;52.298;9.056;2023-11-21T09:23:59;8.50;99.90
47590;DHT22;33316;52.298;9.056;2023-11-21T09:26:26;8.50;99.90
47590;DHT22;33316;52.298;9.056;2023-11-21T09:28:54;8.50;99.90
47590;DHT22;33316;52.298;9.056;2023-11-21T09:31:22;8.40;99.90
47590;DHT22;33316;52.298;9.056;2023-11-21T09:33:52;8.40;99.90
47590;DHT22;33316;52.298;9.056;2023-11-21T09:36:19;8.40;99.90
47590;DHT22;33316;52.298;9.056;2023-11-21T09:38:47;8.40;99.90
47590;DHT22;33316;52.298;9.056;2023-11-21T09:41:21;8.40;99.90
47590;DHT22;33316;52.298;9.056;2023-11-21T09:43:50;8.40;99.90
47590;DHT22;33316;52.298;9.056;2023-11-21T09:46:21;8.40;99.90
47590;DHT22;33316;52.298;9.056;2023-11-21T09:48:52;8.30;99.90
47590;DHT22;33316;52.298;9.056;2023-11-21T09:51:19;8.30;99.90
47590;DHT22;33316;52.298;9.056;2023-11-21T09:53:49;8.20;99.90
47590;DHT22;33316;52.298;9.056;2023-11-21T09:56:17;8.20;99.90
47590;DHT22;33316;52.298;9.056;2023-11-21T09:58:50;8.20;99.90
47590;DHT22;33316;52.298;9.056;2023-11-21T10:01:17;8.20;99.90
47590;DHT22;33316;52.298;9.056;2023-11-21T10:03:45;8.20;99.90
47590;DHT22;33316;52.298;9.056;2023-11-21T10:06:14;8.20;99.90
47590;DHT22;33316;52.298;9.056;2023-11-21T10:08:42;8.20;99.90
47590;DHT22;33316;52.298;9.056;2023-11-21T10:11:09;8.20;99.90
47590;DHT22;33316;52.298;9.056;2023-11-21T10:13:37;8.20;99.90
47590;DHT22;33316;52.298;9.056;2023-11-21T10:16:06;8.20;99.90
47590;DHT22;33316;52.298;9.056;2023-11-21T10:18:34;8.20;99.90
47590;DHT22;33316;52.298;9.056;2023-11-21T10:21:05;8.20;99.90
47590;DHT22;33316;52.298;9.056;2023-11-21T10:23:34;8.20;99.90
47590;DHT22;33316;52.298;9.056;2023-11-21T10:26:01;8.20;99.90
47590;DHT22;33316;52.298;9.056;2023-11-21T10:28:28;8.20;99.90
47590;DHT22;33316;52.298;9.056;2023-11-21T10:30:54;8.20;99.90
47590;DHT22;33316;52.298;9.056;2023-11-21T10:33:27;8.10;99.90
47590;DHT22;33316;52.298;9.056;2023-11-21T10:35:54;8.10;99.90
47590;DHT22;33316;52.298;9.056;2023-11-21T10:38:20;8.10;99.90
47590;DHT22;33316;52.298;9.056;2023-11-21T10:40:50;8.10;99.90
47590;DHT22;33316;52.298;9.056;2023-11-21T10:43:17;8.10;99.90
47590;DHT22;33316;52.298;9.056;2023-11-21T10:45:44;8.10;99.90
47590;DHT22;33316;52.298;9.056;2023-11-21T10:48:13;8.10;99.90
47590;DHT22;33316;52.298;9.056;2023-11-21T10:50:42;8.10;99.90
47590;DHT22;33316;52.298;9.056;2023-11-21T10:53:10;8.10;99.90
47590;DHT22;33316;52.298;9.056;2023-11-21T10:55:37;8.10;99.90
47590;DHT22;33316;52.298;9.056;2023-11-21T10:58:06;8.00;99.90
47590;DHT22;33316;52.298;9.056;2023-11-21T11:00:36;8.00;99.90
47590;DHT22;33316;52.298;9.056;2023-11-21T11:03:05;8.00;99.90
47590;DHT22;33316;52.298;9.056;2023-11-21T11:05:39;8.10;99.90
47590;DHT22;33316;52.298;9.056;2023-11-21T11:08:08;8.00;99.90
47590;DHT22;33316;52.298;9.056;2023-11-21T11:10:35;8.10;99.90
47590;DHT22;33316;52.298;9.056;2023-11-21T11:13:02;8.00;99.90
47590;DHT22;33316;52.298;9.056;2023-11-21T11:15:32;8.00;99.90
47590;DHT22;33316;52.298;9.056;2023-11-21T11:17:58;8.10;99.90
47590;DHT22;33316;52.298;9.056;2023-11-21T11:20:29;8.00;99.90
47590;DHT22;33316;52.298;9.056;2023-11-21T11:23:04;8.10;99.90
47590;DHT22;33316;52.298;9.056;2023-11-21T11:25:45;8.10;99.90
47590;DHT22;33316;52.298;9.056;2023-11-21T11:28:17;8.10;99.90
47590;DHT22;33316;52.298;9.056;2023-11-21T11:30:50;8.20;99.90
47590;DHT22;33316;52.298;9.056;2023-11-21T11:33:22;8.20;99.90
47590;DHT22;33316;52.298;9.056;2023-11-21T11:35:55;8.20;99.90
47590;DHT22;33316;52.298;9.056;2023-11-21T11:38:23;8.20;99.90
47590;DHT22;33316;52.298;9.056;2023-11-21T11:40:52;8.20;99.90
47590;DHT22;33316;52.298;9.056;2023-11-21T11:43:24;8.20;99.90
47590;DHT22;33316;52.298;9.056;2023-11-21T11:45:53;8.20;99.90
47590;DHT22;33316;52.298;9.056;2023-11-21T11:48:22;8.20;99.90
47590;DHT22;33316;52.298;9.056;2023-11-21T11:51:02;8.20;99.90
47590;DHT22;33316;52.298;9.056;2023-11-21T11:53:33;8.20;99.90
47590;DHT22;33316;52.298;9.056;2023-11-21T11:56:22;8.10;99.90
47590;DHT22;33316;52.298;9.056;2023-11-21T11:58:51;8.10;99.90
47590;DHT22;33316;52.298;9.056;2023-11-21T12:01:20;8.10;99.90
47590;DHT22;33316;52.298;9.056;2023-11-21T12:06:33;8.10;99.90
47590;DHT22;33316;52.298;9.056;2023-11-21T12:09:01;8.10;99.90
47590;DHT22;33316;52.298;9.056;2023-11-21T12:11:30;8.20;99.90
47590;DHT22;33316;52.298;9.056;2023-11-21T12:13:57;8.20;99.90
47590;DHT22;33316;52.298;9.056;2023-11-21T12:16:26;8.20;99.90
47590;DHT22;33316;52.298;9.056;2023-11-21T12:18:53;8.20;99.90
47590;DHT22;33316;52.298;9.056;2023-11-21T12:21:20;8.20;99.90
47590;DHT22;33316;52.298;9.056;2023-11-21T12:23:47;8.20;99.90
47590;DHT22;33316;52.298;9.056;2023-11-21T12:26:14;8.20;99.90
47590;DHT22;33316;52.298;9.056;2023-11-21T12:28:41;8.20;99.90
47590;DHT22;33316;52.298;9.056;2023-11-21T12:31:09;8.20;99.90
47590;DHT22;33316;52.298;9.056;2023-11-21T12:33:37;8.20;99.90
47590;DHT22;33316;52.298;9.056;2023-11-21T12:36:04;8.20;99.90
47590;DHT22;33316;52.298;9.056;2023-11-21T12:38:33;8.20;99.90
47590;DHT22;33316;52.298;9.056;2023-11-21T12:41:00;8.10;99.90
47590;DHT22;33316;52.298;9.056;2023-11-21T12:43:28;8.20;99.90
47590;DHT22;33316;52.298;9.056;2023-11-21T12:46:04;8.10;99.90
47590;DHT22;33316;52.298;9.056;2023-11-21T12:48:31;8.20;99.90
47590;DHT22;33316;52.298;9.056;2023-11-21T12:50:59;8.20;99.90
47590;DHT22;33316;52.298;9.056;2023-11-21T12:53:28;8.20;99.90
47590;DHT22;33316;52.298;9.056;2023-11-21T12:56:02;8.30;99.90
47590;DHT22;33316;52.298;9.056;2023-11-21T12:58:29;8.30;99.90
47590;DHT22;33316;52.298;9.056;2023-11-21T13:00:55;8.30;99.90
47590;DHT22;33316;52.298;9.056;2023-11-21T13:03:24;8.30;99.90
47590;DHT22;33316;52.298;9.056;2023-11-21T13:05:52;8.30;99.90
47590;DHT22;33316;52.298;9.056;2023-11-21T13:08:24;8.30;99.90
47590;DHT22;33316;52.298;9.056;2023-11-21T13:10:52;8.30;99.90
47590;DHT22;33316;52.298;9.056;2023-11-21T13:13:20;8.30;99.90
47590;DHT22;33316;52.298;9.056;2023-11-21T13:15:47;8.30;99.90
47590;DHT22;33316;52.298;9.056;2023-11-21T13:18:14;8.30;99.90
47590;DHT22;33316;52.298;9.056;2023-11-21T13:20:42;8.30;99.90
47590;DHT22;33316;52.298;9.056;2023-11-21T13:23:10;8.20;99.90
47590;DHT22;33316;52.298;9.056;2023-11-21T13:25:39;8.30;99.90
47590;DHT22;33316;52.298;9.056;2023-11-21T13:28:06;8.20;99.80
47590;DHT22;33316;52.298;9.056;2023-11-21T13:30:34;8.30;99.90
47590;DHT22;33316;52.298;9.056;2023-11-21T13:33:02;8.20;99.80
47590;DHT22;33316;52.298;9.056;2023-11-21T13:35:32;8.30;99.70
47590;DHT22;33316;52.298;9.056;2023-11-21T13:38:04;8.20;99.60
47590;DHT22;33316;52.298;9.056;2023-11-21T13:40:32;8.20;99.50
47590;DHT22;33316;52.298;9.056;2023-11-21T13:43:01;8.20;99.60
47590;DHT22;33316;52.298;9.056;2023-11-21T13:45:30;8.20;99.50
47590;DHT22;33316;52.298;9.056;2023-11-21T13:47:57;8.20;99.70
47590;DHT22;33316;52.298;9.056;2023-11-21T13:50:24;8.20;99.80
47590;DHT22;33316;52.298;9.056;2023-11-21T13:52:57;8.20;99.80
47590;DHT22;33316;52.298;9.056;2023-11-21T13:55:29;8.20;99.80
47590;DHT22;33316;52.298;9.056;2023-11-21T13:57:56;8.20;99.40
47590;DHT22;33316;52.298;9.056;2023-11-21T14:00:26;8.20;99.50
47590;DHT22;33316;52.298;9.056;2023-11-21T14:03:07;8.20;99.30
47590;DHT22;33316;52.298;9.056;2023-11-21T14:05:42;8.20;99.10
47590;DHT22;33316;52.298;9.056;2023-11-21T14:08:10;8.20;98.80
47590;DHT22;33316;52.298;9.056;2023-11-21T14:10:42;8.20;99.00
47590;DHT22;33316;52.298;9.056;2023-11-21T14:13:10;8.20;99.20
47590;DHT22;33316;52.298;9.056;2023-11-21T14:15:39;8.20;99.30
47590;DHT22;33316;52.298;9.056;2023-11-21T14:18:10;8.20;99.40
47590;DHT22;33316;52.298;9.056;2023-11-21T14:20:40;8.20;99.50
47590;DHT22;33316;52.298;9.056;2023-11-21T14:23:07;8.20;99.60
47590;DHT22;33316;52.298;9.056;2023-11-21T14:25:34;8.20;99.60
47590;DHT22;33316;52.298;9.056;2023-11-21T14:28:02;8.20;99.80
47590;DHT22;33316;52.298;9.056;2023-11-21T14:30:31;8.20;99.80
47590;DHT22;33316;52.298;9.056;2023-11-21T14:33:02;8.20;99.80
47590;DHT22;33316;52.298;9.056;2023-11-21T14:35:29;8.20;99.70
47590;DHT22;33316;52.298;9.056;2023-11-21T14:37:58;8.20;99.70
47590;DHT22;33316;52.298;9.056;2023-11-21T14:40:26;8.20;99.80
47590;DHT22;33316;52.298;9.056;2023-11-21T14:42:58;8.20;99.40
47590;DHT22;33316;52.298;9.056;2023-11-21T14:45:25;8.20;99.60
47590;DHT22;33316;52.298;9.056;2023-11-21T14:47:52;8.20;99.50
47590;DHT22;33316;52.298;9.056;2023-11-21T14:50:32;8.20;99.50
47590;DHT22;33316;52.298;9.056;2023-11-21T14:53:15;8.10;99.80
47590;DHT22;33316;52.298;9.056;2023-11-21T14:55:42;8.20;99.60
47590;DHT22;33316;52.298;9.056;2023-11-21T14:58:22;8.20;99.60
47590;DHT22;33316;52.298;9.056;2023-11-21T15:00:52;8.10;99.40
47590;DHT22;33316;52.298;9.056;2023-11-21T15:03:23;8.10;99.40
47590;DHT22;33316;52.298;9.056;2023-11-21T15:06:09;8.10;99.30
47590;DHT22;33316;52.298;9.056;2023-11-21T15:08:48;8.10;99.40
47590;DHT22;33316;52.298;9.056;2023-11-21T15:11:19;8.10;99.50
47590;DHT22;33316;52.298;9.056;2023-11-21T15:13:47;8.10;99.40
47590;DHT22;33316;52.298;9.056;2023-11-21T15:16:17;8.10;99.40
47590;DHT22;33316;52.298;9.056;2023-11-21T15:18:45;8.00;99.30
47590;DHT22;33316;52.298;9.056;2023-11-21T15:21:13;8.00;99.10
47590;DHT22;33316;52.298;9.056;2023-11-21T15:23:40;8.00;99.20
47590;DHT22;33316;52.298;9.056;2023-11-21T15:26:07;8.00;99.30
47590;DHT22;33316;52.298;9.056;2023-11-21T15:28:36;8.00;99.40
47590;DHT22;33316;52.298;9.056;2023-11-21T15:31:02;8.00;99.50
47590;DHT22;33316;52.298;9.056;2023-11-21T15:33:29;8.00;99.60
47590;DHT22;33316;52.298;9.056;2023-11-21T15:35:57;8.00;99.70
47590;DHT22;33316;52.298;9.056;2023-11-21T15:38:38;8.00;99.80
47590;DHT22;33316;52.298;9.056;2023-11-21T15:41:14;8.00;99.90
47590;DHT22;33316;52.298;9.056;2023-11-21T15:43:41;8.00;99.90
47590;DHT22;33316;52.298;9.056;2023-11-21T15:46:07;8.10;99.90
47590;DHT22;33316;52.298;9.056;2023-11-21T15:48:35;8.10;99.90
47590;DHT22;33316;52.298;9.056;2023-11-21T15:51:04;8.10;99.90
47590;DHT22;33316;52.298;9.056;2023-11-21T15:53:32;8.00;99.80